createdAt,value
2022-08-01T00:00:58.665Z,79.05
2022-08-01T00:03:25.563Z,79.37
2022-08-01T00:05:52.444Z,79.13
2022-08-01T00:08:19.318Z,82.20
2022-08-01T00:10:46.205Z,81.33
2022-08-01T00:13:20.239Z,82.00
2022-08-01T00:15:54.227Z,82.14
2022-08-01T00:18:21.782Z,83.60
2022-08-01T00:20:48.629Z,83.87
2022-08-01T00:23:18.462Z,82.50
2022-08-01T00:25:45.417Z,81.48
2022-08-01T00:28:12.516Z,81.39
2022-08-01T00:30:39.412Z,81.06
2022-08-01T00:33:06.406Z,80.27
2022-08-01T00:35:33.279Z,80.70
2022-08-01T00:38:00.200Z,81.13
2022-08-01T00:40:27.102Z,81.28
2022-08-01T00:42:53.955Z,81.12
2022-08-01T00:45:20.868Z,80.72
2022-08-01T00:47:48.129Z,80.60
2022-08-01T00:50:22.350Z,80.20
2022-08-01T00:52:51.664Z,79.86
2022-08-01T00:55:20.728Z,79.85
2022-08-01T00:58:02.211Z,81.02
2022-08-01T01:00:34.812Z,80.86
2022-08-01T01:03:19.531Z,80.96
2022-08-01T01:06:16.727Z,82.81
2022-08-01T01:09:04.640Z,83.35
2022-08-01T01:11:45.798Z,83.83
2022-08-01T01:14:47.302Z,84.53
2022-08-01T01:17:50.417Z,82.58
2022-08-01T01:20:13.290Z,84.38
2022-08-01T01:23:52.841Z,84.57
2022-08-01T01:26:40.652Z,83.63
2022-08-01T01:29:29.063Z,83.76
2022-08-01T01:32:06.931Z,84.49
2022-08-01T01:34:41.398Z,84.75
2022-08-01T01:37:16.050Z,83.84
2022-08-01T01:39:45.353Z,84.21
2022-08-01T01:42:22.274Z,84.02
2022-08-01T01:44:51.453Z,85.36
2022-08-01T01:47:18.853Z,84.56
2022-08-01T01:49:48.614Z,83.49
2022-08-01T01:52:18.457Z,83.57
2022-08-01T01:54:52.084Z,82.77
2022-08-01T01:57:19.848Z,82.87
2022-08-01T01:59:55.704Z,82.72
2022-08-01T02:02:25.551Z,82.93
2022-08-01T02:04:53.716Z,83.07
2022-08-01T02:07:26.525Z,83.54
2022-08-01T02:10:03.939Z,84.14
2022-08-01T02:12:36.337Z,83.90
2022-08-01T02:15:05.287Z,82.43
2022-08-01T02:17:32.615Z,82.64
2022-08-01T02:20:00.040Z,82.40
2022-08-01T02:22:43.523Z,83.16
2022-08-01T02:25:35.781Z,83.12
2022-08-01T02:28:10.490Z,82.61
2022-08-01T02:30:51.438Z,82.37
2022-08-01T02:33:26.299Z,81.99
2022-08-01T02:36:30.027Z,82.05
2022-08-01T02:38:48.059Z,83.34
2022-08-01T02:41:22.417Z,84.09
2022-08-01T02:43:59.364Z,85.37
2022-08-01T02:46:36.104Z,84.07
2022-08-01T02:49:08.224Z,83.81
2022-08-01T02:51:37.182Z,83.60
2022-08-01T02:54:08.312Z,83.67
2022-08-01T02:56:36.231Z,82.93
2022-08-01T02:59:16.654Z,82.93
2022-08-01T03:01:49.487Z,82.98
2022-08-01T03:04:19.744Z,82.97
2022-08-01T03:06:48.537Z,83.39
2022-08-01T03:09:17.246Z,85.14
2022-08-01T03:11:46.745Z,86.84
2022-08-01T03:14:15.614Z,86.62
2022-08-01T03:16:45.952Z,86.26
2022-08-01T03:19:15.175Z,85.60
2022-08-01T03:21:44.467Z,85.38
2022-08-01T03:24:12.796Z,84.69
2022-08-01T03:26:41.389Z,84.73
2022-08-01T03:29:35.214Z,84.12
2022-08-01T03:32:04.031Z,84.00
2022-08-01T03:34:31.985Z,84.22
2022-08-01T03:37:15.868Z,84.08
2022-08-01T03:39:53.644Z,83.89
2022-08-01T03:42:30.613Z,83.92
2022-08-01T03:45:05.629Z,84.16
2022-08-01T03:47:43.702Z,83.99
2022-08-01T03:50:14.888Z,84.55
2022-08-01T03:52:46.555Z,84.53
2022-08-01T03:55:15.477Z,84.48
2022-08-01T03:57:43.645Z,83.98
2022-08-01T04:00:11.928Z,84.09
2022-08-01T04:02:39.601Z,83.79
2022-08-01T04:05:08.299Z,84.13
2022-08-01T04:07:40.445Z,84.48
2022-08-01T04:10:07.985Z,85.79
2022-08-01T04:12:37.616Z,86.17
2022-08-01T04:15:06.511Z,85.42
2022-08-01T04:17:33.457Z,85.27
2022-08-01T04:20:00.355Z,85.06
2022-08-01T04:22:28.268Z,85.42
2022-08-01T04:24:57.888Z,85.73
2022-08-01T04:27:50.476Z,86.04
2022-08-01T04:30:23.678Z,85.80
2022-08-01T04:32:54.140Z,85.56
2022-08-01T04:36:00.912Z,85.57
2022-08-01T04:38:24.808Z,85.28
2022-08-01T04:40:53.446Z,84.89
2022-08-01T04:43:20.430Z,84.97
2022-08-01T04:45:48.907Z,85.07
2022-08-01T04:48:18.856Z,86.43
2022-08-01T04:50:46.334Z,87.07
2022-08-01T04:53:19.028Z,89.11
2022-08-01T04:55:49.493Z,88.93
2022-08-01T04:58:18.449Z,89.22
2022-08-01T05:00:48.726Z,88.44
2022-08-01T05:03:15.858Z,87.64
2022-08-01T05:05:42.756Z,86.78
2022-08-01T05:08:10.273Z,86.59
2022-08-01T05:10:37.108Z,86.80
2022-08-01T05:13:03.982Z,87.08
2022-08-01T05:15:30.858Z,86.70
2022-08-01T05:17:57.798Z,86.50
2022-08-01T05:20:24.741Z,86.72
2022-08-01T05:22:51.591Z,86.90
2022-08-01T05:25:20.615Z,87.23
2022-08-01T05:28:08.417Z,88.13
2022-08-01T05:30:35.370Z,88.20
2022-08-01T05:33:02.238Z,88.12
2022-08-01T05:35:47.826Z,87.92
2022-08-01T05:38:16.142Z,88.22
2022-08-01T05:40:43.111Z,88.57
2022-08-01T05:43:10.025Z,88.69
2022-08-01T05:45:43.960Z,88.86
2022-08-01T05:48:10.826Z,88.97
2022-08-01T05:50:37.743Z,88.89
2022-08-01T05:53:04.795Z,88.96
2022-08-01T05:55:31.674Z,88.79
2022-08-01T05:57:59.626Z,88.46
2022-08-01T06:00:26.661Z,88.27
2022-08-01T06:02:53.588Z,87.86
2022-08-01T06:05:20.589Z,87.92
2022-08-01T06:07:47.454Z,87.62
2022-08-01T06:10:14.355Z,87.44
2022-08-01T06:12:41.204Z,87.13
2022-08-01T06:15:09.391Z,87.24
2022-08-01T06:17:36.367Z,86.67
2022-08-01T06:20:04.603Z,86.90
2022-08-01T06:22:31.414Z,85.94
2022-08-01T06:24:58.659Z,85.08
2022-08-01T06:27:28.485Z,84.74
2022-08-01T06:29:55.972Z,84.90
2022-08-01T06:32:26.878Z,84.52
2022-08-01T06:34:56.105Z,84.49
2022-08-01T06:37:24.237Z,84.38
2022-08-01T06:39:51.233Z,84.45
2022-08-01T06:42:18.844Z,84.41
2022-08-01T06:44:46.212Z,84.25
2022-08-01T06:47:13.364Z,83.86
2022-08-01T06:49:40.303Z,84.03
2022-08-01T06:52:07.657Z,84.80
2022-08-01T06:54:34.846Z,84.83
2022-08-01T06:57:01.916Z,84.03
2022-08-01T06:59:28.802Z,83.15
2022-08-01T07:01:55.641Z,82.43
2022-08-01T07:04:22.670Z,82.08
2022-08-01T07:06:49.737Z,79.17
2022-08-01T07:09:16.589Z,76.97
2022-08-01T07:11:43.439Z,74.98
2022-08-01T07:14:10.295Z,73.76
2022-08-01T07:16:37.306Z,73.08
2022-08-01T07:19:04.284Z,72.33
2022-08-01T07:21:40.241Z,71.90
2022-08-01T07:24:15.159Z,71.96
2022-08-01T07:26:53.306Z,71.82
2022-08-01T07:29:25.615Z,69.52
2022-08-01T07:31:58.018Z,68.56
2022-08-01T07:34:25.873Z,68.84
2022-08-01T07:36:53.960Z,66.67
2022-08-01T07:39:21.304Z,67.64
2022-08-01T07:42:06.274Z,67.69
2022-08-01T07:44:35.642Z,67.11
2022-08-01T07:47:05.618Z,67.38
2022-08-01T07:49:36.246Z,65.14
2022-08-01T07:52:20.291Z,61.68
2022-08-01T07:57:19.129Z,59.56
2022-08-01T08:00:12.312Z,58.99
2022-08-01T08:02:39.190Z,58.94
2022-08-01T08:05:08.357Z,58.69
2022-08-01T08:07:35.587Z,56.87
2022-08-01T08:10:10.356Z,57.06
2022-08-01T08:12:37.352Z,57.50
2022-08-01T08:15:07.014Z,55.67
2022-08-01T08:17:35.670Z,55.78
2022-08-01T08:20:13.480Z,54.78
2022-08-01T08:22:43.588Z,52.96
2022-08-01T08:25:10.695Z,52.55
2022-08-01T08:27:38.820Z,53.32
2022-08-01T08:30:08.909Z,51.26
2022-08-01T08:32:37.290Z,50.68
2022-08-01T08:35:05.837Z,50.32
2022-08-01T08:37:37.890Z,51.24
2022-08-01T08:40:10.974Z,48.89
2022-08-01T08:42:41.851Z,48.72
2022-08-01T08:45:12.097Z,49.22
2022-08-01T08:47:40.738Z,49.63
2022-08-01T08:50:08.078Z,49.10
2022-08-01T08:52:40.297Z,49.45
2022-08-01T08:55:08.937Z,47.81
2022-08-01T08:57:36.148Z,47.26
2022-08-01T09:00:03.860Z,48.21
2022-08-01T09:02:30.731Z,47.78
2022-08-01T09:04:58.905Z,47.41
2022-08-01T09:07:27.278Z,46.05
2022-08-01T09:09:54.803Z,47.85
2022-08-01T09:12:21.739Z,46.33
2022-08-01T09:14:57.217Z,45.62
2022-08-01T09:17:29.638Z,46.11
2022-08-01T09:19:57.861Z,46.54
2022-08-01T09:22:26.798Z,45.90
2022-08-01T09:25:20.458Z,46.54
2022-08-01T09:28:06.897Z,46.49
2022-08-01T09:30:40.883Z,44.81
2022-08-01T09:33:18.049Z,45.10
2022-08-01T09:35:57.382Z,45.16
2022-08-01T09:38:28.299Z,44.68
2022-08-01T09:41:01.398Z,45.66
2022-08-01T09:43:32.080Z,45.95
2022-08-01T09:46:01.089Z,45.39
2022-08-01T09:48:30.246Z,44.83
2022-08-01T09:51:04.944Z,44.65
2022-08-01T09:53:51.757Z,42.55
2022-08-01T09:56:21.857Z,41.51
2022-08-01T09:59:02.012Z,41.29
2022-08-01T10:01:50.614Z,40.81
2022-08-01T10:04:21.396Z,41.24
2022-08-01T10:06:53.736Z,40.25
2022-08-01T10:09:35.834Z,40.94
2022-08-01T10:12:15.780Z,41.16
2022-08-01T10:14:53.279Z,41.45
2022-08-01T10:17:22.717Z,40.76
2022-08-01T10:19:55.775Z,39.26
2022-08-01T10:22:25.871Z,39.63
2022-08-01T10:24:58.042Z,38.21
2022-08-01T10:27:38.393Z,38.38
2022-08-01T10:30:16.908Z,39.02
2022-08-01T10:32:55.140Z,39.46
2022-08-01T10:35:46.501Z,38.32
2022-08-01T10:38:10.626Z,40.44
2022-08-01T10:40:38.964Z,35.92
2022-08-01T10:43:06.994Z,34.38
2022-08-01T10:45:34.615Z,35.38
2022-08-01T10:48:20.882Z,34.78
2022-08-01T10:50:51.227Z,35.39
2022-08-01T10:53:24.022Z,34.19
2022-08-01T10:55:59.377Z,35.44
2022-08-01T10:58:39.568Z,33.81
2022-08-01T11:01:25.585Z,34.14
2022-08-01T11:04:02.193Z,33.22
2022-08-01T11:06:35.302Z,32.71
2022-08-01T11:09:17.085Z,33.44
2022-08-01T11:12:12.862Z,33.45
2022-08-01T11:14:59.502Z,34.48
2022-08-01T11:17:54.939Z,34.11
2022-08-01T11:20:34.644Z,34.87
2022-08-01T11:23:07.940Z,35.23
2022-08-01T11:26:03.316Z,35.17
2022-08-01T11:28:33.149Z,35.98
2022-08-01T11:31:11.122Z,36.74
2022-08-01T11:33:45.790Z,35.64
2022-08-01T11:36:22.338Z,35.60
2022-08-01T11:38:59.010Z,35.60
2022-08-01T11:41:37.498Z,36.20
2022-08-01T11:44:12.118Z,36.09
2022-08-01T11:47:01.602Z,34.46
2022-08-01T11:49:49.412Z,34.22
2022-08-01T11:52:28.782Z,33.94
2022-08-01T11:55:03.252Z,33.49
2022-08-01T11:57:36.252Z,33.74
2022-08-01T12:00:18.059Z,33.82
2022-08-01T12:02:49.653Z,32.82
2022-08-01T12:05:24.825Z,33.20
2022-08-01T12:07:53.392Z,32.51
2022-08-01T12:10:23.957Z,33.03
2022-08-01T12:12:58.671Z,32.41
2022-08-01T12:15:36.045Z,32.27
2022-08-01T12:18:05.908Z,32.26
2022-08-01T12:20:55.739Z,32.53
2022-08-01T12:23:23.759Z,33.32
2022-08-01T12:25:54.658Z,33.56
2022-08-01T12:28:21.941Z,33.82
2022-08-01T12:30:50.020Z,33.02
2022-08-01T12:33:20.488Z,34.17
2022-08-01T12:35:48.302Z,34.35
2022-08-01T12:38:28.047Z,34.62
2022-08-01T12:40:55.997Z,35.19
2022-08-01T12:43:29.452Z,33.46
2022-08-01T12:46:00.792Z,33.55
2022-08-01T12:48:28.677Z,33.47
2022-08-01T12:50:58.863Z,34.40
2022-08-01T12:53:26.978Z,36.08
2022-08-01T12:56:07.157Z,36.95
2022-08-01T12:58:35.191Z,37.30
2022-08-01T13:01:10.449Z,37.43
2022-08-01T13:03:38.269Z,38.44
2022-08-01T13:06:17.157Z,37.03
2022-08-01T13:08:46.195Z,39.46
2022-08-01T13:11:16.573Z,38.59
2022-08-01T13:13:54.337Z,39.46
2022-08-01T13:16:43.350Z,40.63
2022-08-01T13:19:15.070Z,41.13
2022-08-01T13:21:56.298Z,45.67
2022-08-01T13:24:30.989Z,49.74
2022-08-01T13:27:05.290Z,52.01
2022-08-01T13:29:39.579Z,53.22
2022-08-01T13:32:28.037Z,59.18
2022-08-01T13:35:08.663Z,59.92
2022-08-01T13:37:38.421Z,54.86
2022-08-01T13:40:08.055Z,53.74
2022-08-01T13:42:35.587Z,52.96
2022-08-01T13:45:04.389Z,45.01
2022-08-01T13:47:41.223Z,50.81
2022-08-01T13:50:37.083Z,51.77
2022-08-01T13:53:04.053Z,51.11
2022-08-01T13:55:34.505Z,50.51
2022-08-01T13:58:02.131Z,47.28
2022-08-01T14:00:36.989Z,45.17
2022-08-01T14:03:04.268Z,40.87
2022-08-01T14:05:31.812Z,44.71
2022-08-01T14:07:58.687Z,42.33
2022-08-01T14:10:25.945Z,41.80
2022-08-01T14:12:52.847Z,42.13
2022-08-01T14:15:37.736Z,43.31
2022-08-01T14:18:09.714Z,46.70
2022-08-01T14:20:39.105Z,46.63
2022-08-01T14:23:06.385Z,45.22
2022-08-01T14:26:03.618Z,46.14
2022-08-01T14:28:29.298Z,46.00
2022-08-01T14:30:58.000Z,43.96
2022-08-01T14:33:25.091Z,43.94
2022-08-01T14:36:05.898Z,43.82
2022-08-01T14:38:38.965Z,42.12
2022-08-01T14:41:06.187Z,42.45
2022-08-01T14:43:34.088Z,42.39
2022-08-01T14:46:05.590Z,41.71
2022-08-01T14:48:32.977Z,42.78
2022-08-01T14:51:03.958Z,43.35
2022-08-01T14:53:31.855Z,42.88
2022-08-01T14:56:05.094Z,43.28
2022-08-01T14:58:32.194Z,44.71
2022-08-01T15:01:06.945Z,45.02
2022-08-01T15:03:34.336Z,45.77
2022-08-01T15:06:02.571Z,46.15
2022-08-01T15:08:31.040Z,46.04
2022-08-01T15:10:58.015Z,46.64
2022-08-01T15:13:25.086Z,46.07
2022-08-01T15:15:53.036Z,44.95
2022-08-01T15:18:19.917Z,44.03
2022-08-01T15:20:46.915Z,43.17
2022-08-01T15:23:13.918Z,42.80
2022-08-01T15:25:42.191Z,43.38
2022-08-01T15:28:12.754Z,42.88
2022-08-01T15:30:40.377Z,43.92
2022-08-01T15:33:08.078Z,42.06
2022-08-01T15:35:35.429Z,40.91
2022-08-01T15:38:02.496Z,41.07
2022-08-01T15:40:30.587Z,41.69
2022-08-01T15:42:57.456Z,41.88
2022-08-01T15:48:11.312Z,43.52
2022-08-01T15:50:39.442Z,43.64
2022-08-01T15:53:07.540Z,44.98
2022-08-01T15:55:38.662Z,45.94
2022-08-01T15:58:07.472Z,45.99
2022-08-01T16:00:39.194Z,47.38
2022-08-01T16:03:10.662Z,47.62
2022-08-01T16:05:43.603Z,48.78
2022-08-01T16:08:14.378Z,48.31
2022-08-01T16:10:41.921Z,48.25
2022-08-01T16:13:09.983Z,49.01
2022-08-01T16:15:39.365Z,49.63
2022-08-01T16:18:08.902Z,50.29
2022-08-01T16:20:38.283Z,49.75
2022-08-01T16:23:10.019Z,50.55
2022-08-01T16:25:36.967Z,50.23
2022-08-01T16:28:04.243Z,50.72
2022-08-01T16:30:31.160Z,49.54
2022-08-01T16:33:05.520Z,49.38
2022-08-01T16:35:44.124Z,49.28
2022-08-01T16:38:13.895Z,48.42
2022-08-01T16:40:47.567Z,48.31
2022-08-01T16:43:16.662Z,48.98
2022-08-01T16:45:44.062Z,48.13
2022-08-01T16:48:18.482Z,48.97
2022-08-01T16:50:56.113Z,48.71
2022-08-01T16:53:23.948Z,48.92
2022-08-01T16:55:51.162Z,49.35
2022-08-01T16:58:27.816Z,48.95
2022-08-01T17:00:57.616Z,50.00
2022-08-01T17:03:46.842Z,50.65
2022-08-01T17:06:14.074Z,50.45
2022-08-01T17:08:46.277Z,51.44
2022-08-01T17:11:17.562Z,51.60
2022-08-01T17:13:56.696Z,52.09
2022-08-01T17:16:23.747Z,52.10
2022-08-01T17:18:50.737Z,52.51
2022-08-01T17:21:18.343Z,53.77
2022-08-01T17:23:45.290Z,53.18
2022-08-01T17:26:12.195Z,52.92
2022-08-01T17:28:39.873Z,53.97
2022-08-01T17:31:09.380Z,55.27
2022-08-01T17:33:45.705Z,56.12
2022-08-01T17:36:15.075Z,56.53
2022-08-01T17:38:43.100Z,57.10
2022-08-01T17:41:10.157Z,57.53
2022-08-01T17:43:37.130Z,57.46
2022-08-01T17:46:04.355Z,57.42
2022-08-01T17:48:31.296Z,57.45
2022-08-01T17:50:58.320Z,58.15
2022-08-01T17:53:25.281Z,58.98
2022-08-01T17:55:55.930Z,59.82
2022-08-01T17:58:48.775Z,60.24
2022-08-01T18:01:18.521Z,59.27
2022-08-01T18:03:46.161Z,62.11
2022-08-01T18:06:17.548Z,63.81
2022-08-01T18:08:48.466Z,63.64
2022-08-01T18:11:17.053Z,65.75
2022-08-01T18:13:44.977Z,69.04
2022-08-01T18:16:13.472Z,71.77
2022-08-01T18:18:42.323Z,71.40
2022-08-01T18:21:11.977Z,72.03
2022-08-01T18:23:39.379Z,73.13
2022-08-01T18:26:08.546Z,73.59
2022-08-01T18:28:46.679Z,74.22
2022-08-01T18:31:20.639Z,74.14
2022-08-01T18:33:54.017Z,74.73
2022-08-01T18:36:34.307Z,75.91
2022-08-01T18:39:10.332Z,79.28
2022-08-01T18:41:38.658Z,80.15
2022-08-01T18:44:08.374Z,79.51
2022-08-01T18:46:38.688Z,79.77
2022-08-01T18:49:07.994Z,80.45
2022-08-01T18:51:47.114Z,81.67
2022-08-01T18:54:15.668Z,81.76
2022-08-01T18:56:44.573Z,80.78
2022-08-01T18:59:12.485Z,80.25
2022-08-01T19:01:40.008Z,80.19
2022-08-01T19:04:07.744Z,81.35
2022-08-01T19:06:47.607Z,81.73
2022-08-01T19:09:20.391Z,81.47
2022-08-01T19:11:48.138Z,82.90
2022-08-01T19:14:16.485Z,83.49
2022-08-01T19:16:43.559Z,84.04
2022-08-01T19:19:10.718Z,85.06
2022-08-01T19:21:45.710Z,86.21
2022-08-01T19:24:22.702Z,86.06
2022-08-01T19:26:57.828Z,86.92
2022-08-01T19:29:37.845Z,86.39
2022-08-01T19:32:09.254Z,87.38
2022-08-01T19:34:50.610Z,88.59
2022-08-01T19:37:18.225Z,87.58
2022-08-01T19:39:45.547Z,87.47
2022-08-01T19:42:13.583Z,88.69
2022-08-01T19:44:42.031Z,89.10
2022-08-01T19:47:09.912Z,89.33
2022-08-01T19:49:37.262Z,90.22
2022-08-01T19:52:20.089Z,90.02
2022-08-01T19:54:48.139Z,89.79
2022-08-01T19:57:16.287Z,90.12
2022-08-01T19:59:46.881Z,90.33
2022-08-01T20:02:20.100Z,90.52
2022-08-01T20:04:47.883Z,92.39
2022-08-01T20:07:15.538Z,92.77
2022-08-01T20:09:46.948Z,92.10
2022-08-01T20:12:14.912Z,91.38
2022-08-01T20:14:43.955Z,90.94
2022-08-01T20:17:11.080Z,89.37
2022-08-01T20:19:38.169Z,89.29
2022-08-01T20:22:07.939Z,89.61
2022-08-01T20:24:43.937Z,91.17
2022-08-01T20:27:13.925Z,92.74
2022-08-01T20:29:42.045Z,93.56
2022-08-01T20:32:09.728Z,93.92
2022-08-01T20:34:39.603Z,93.33
2022-08-01T20:37:13.150Z,93.23
2022-08-01T20:39:44.907Z,93.41
2022-08-01T20:42:13.993Z,92.62
2022-08-01T20:44:41.993Z,92.56
2022-08-01T20:47:09.382Z,92.61
2022-08-01T20:49:37.896Z,93.19
2022-08-01T20:52:10.939Z,93.60
2022-08-01T20:54:39.832Z,92.99
2022-08-01T20:57:17.104Z,93.69
2022-08-01T20:59:55.440Z,94.74
2022-08-01T21:03:05.067Z,93.99
2022-08-01T21:05:37.172Z,93.61
2022-08-01T21:08:24.219Z,94.01
2022-08-01T21:10:57.783Z,94.82
2022-08-01T21:13:42.475Z,94.39
2022-08-01T21:16:25.290Z,95.00
2022-08-01T21:19:20.179Z,94.01
2022-08-01T21:22:36.709Z,92.52
2022-08-01T21:25:11.028Z,91.85
2022-08-01T21:27:40.574Z,92.57
2022-08-01T21:30:09.727Z,91.82
2022-08-01T21:32:37.956Z,91.30
2022-08-01T21:35:07.857Z,91.42
2022-08-01T21:37:45.504Z,92.45
2022-08-01T21:40:23.757Z,93.91
2022-08-01T21:42:53.741Z,94.75
2022-08-01T21:45:25.571Z,94.80
2022-08-01T21:47:53.114Z,95.12
2022-08-01T21:50:20.608Z,93.97
2022-08-01T21:52:54.681Z,93.99
2022-08-01T21:55:35.201Z,94.66
2022-08-01T21:58:52.561Z,95.10
2022-08-01T22:01:52.321Z,95.20
2022-08-01T22:04:43.742Z,95.63
2022-08-01T22:07:15.047Z,95.78
2022-08-01T22:09:48.208Z,95.61
2022-08-01T22:12:18.476Z,95.51
2022-08-01T22:14:49.563Z,95.77
2022-08-01T22:17:24.174Z,95.13
2022-08-01T22:19:55.117Z,94.70
2022-08-01T22:22:44.614Z,94.68
2022-08-01T22:25:13.552Z,94.55
2022-08-01T22:28:06.593Z,95.07
2022-08-01T22:30:29.279Z,94.63
2022-08-01T22:33:07.811Z,94.48
2022-08-01T22:35:50.073Z,94.39
2022-08-01T22:38:19.378Z,95.02
2022-08-01T22:40:52.924Z,95.98
2022-08-01T22:44:08.830Z,94.63
2022-08-01T22:46:43.314Z,94.22
2022-08-01T22:49:35.072Z,94.34
2022-08-01T22:52:28.126Z,95.18
2022-08-01T22:55:20.205Z,97.29
2022-08-01T22:58:03.842Z,97.44
2022-08-01T23:00:34.286Z,96.66
2022-08-01T23:03:20.791Z,95.94
2022-08-01T23:06:01.768Z,93.31
2022-08-01T23:08:29.004Z,93.70
2022-08-01T23:10:56.275Z,94.22
2022-08-01T23:13:23.587Z,95.85
2022-08-01T23:15:51.900Z,94.73
2022-08-01T23:18:21.459Z,94.36
2022-08-01T23:20:51.115Z,93.13
2022-08-01T23:23:30.872Z,93.40
2022-08-01T23:26:00.620Z,94.81
2022-08-01T23:28:29.059Z,94.82
2022-08-01T23:30:59.083Z,94.75
2022-08-01T23:33:25.948Z,95.32
2022-08-01T23:35:52.789Z,96.43
2022-08-01T23:38:20.476Z,96.31
2022-08-01T23:40:47.608Z,95.83
2022-08-01T23:43:21.889Z,96.39
2022-08-01T23:46:02.140Z,96.88
2022-08-01T23:48:33.576Z,97.05
2022-08-01T23:51:00.748Z,97.25
2022-08-01T23:53:30.593Z,97.53
2022-08-01T23:56:07.089Z,99.98
2022-08-01T23:58:34.078Z,99.83
